sensor_id;sensor_type;location;lat;lon;timestamp;temperature;humidity
20315;DHT22;10315;50.958;13.080;2024-02-26T01:31:45;0.80;99.90
20315;DHT22;10315;50.958;13.080;2024-02-26T01:41:49;0.70;99.90
20315;DHT22;10315;50.958;13.080;2024-02-26T01:51:52;0.90;99.90
20315;DHT22;10315;50.958;13.080;2024-02-26T02:01:57;0.80;99.90
20315;DHT22;10315;50.958;13.080;2024-02-26T02:12:01;0.60;99.90
20315;DHT22;10315;50.958;13.080;2024-02-26T02:22:04;0.20;99.90
20315;DHT22;10315;50.958;13.080;2024-02-26T02:32:06;-0.10;99.90
20315;DHT22;10315;50.958;13.080;2024-02-26T02:42:09;0.30;99.90
20315;DHT22;10315;50.958;13.080;2024-02-26T02:52:11;1.00;99.90
20315;DHT22;10315;50.958;13.080;2024-02-26T03:02:16;1.30;99.90
20315;DHT22;10315;50.958;13.080;2024-02-26T03:12:18;1.40;99.90
20315;DHT22;10315;50.958;13.080;2024-02-26T03:22:24;1.40;99.90
20315;DHT22;10315;50.958;13.080;2024-02-26T03:32:25;1.60;99.90
20315;DHT22;10315;50.958;13.080;2024-02-26T03:42:28;1.60;99.90
20315;DHT22;10315;50.958;13.080;2024-02-26T03:52:30;1.60;99.90
20315;DHT22;10315;50.958;13.080;2024-02-26T04:02:33;1.50;99.90
20315;DHT22;10315;50.958;13.080;2024-02-26T04:12:34;1.70;99.90
20315;DHT22;10315;50.958;13.080;2024-02-26T04:22:37;1.80;99.90
20315;DHT22;10315;50.958;13.080;2024-02-26T04:32:39;1.20;99.90
20315;DHT22;10315;50.958;13.080;2024-02-26T04:42:42;0.40;99.90
20315;DHT22;10315;50.958;13.080;2024-02-26T04:52:43;0.00;99.90
20315;DHT22;10315;50.958;13.080;2024-02-26T05:02:46;-0.60;99.90
20315;DHT22;10315;50.958;13.080;2024-02-26T05:12:48;-0.80;99.90
20315;DHT22;10315;50.958;13.080;2024-02-26T05:22:51;-0.90;99.90
20315;DHT22;10315;50.958;13.080;2024-02-26T05:32:52;-0.70;99.90
20315;DHT22;10315;50.958;13.080;2024-02-26T05:42:55;-0.10;99.90
20315;DHT22;10315;50.958;13.080;2024-02-26T05:52:57;-0.80;99.90
20315;DHT22;10315;50.958;13.080;2024-02-26T06:03:00;-0.40;99.90
20315;DHT22;10315;50.958;13.080;2024-02-26T06:13:02;0.20;99.90
20315;DHT22;10315;50.958;13.080;2024-02-26T06:23:05;0.40;99.90
20315;DHT22;10315;50.958;13.080;2024-02-26T06:33:07;0.80;99.90
20315;DHT22;10315;50.958;13.080;2024-02-26T06:43:10;0.90;99.90
20315;DHT22;10315;50.958;13.080;2024-02-26T06:53:12;1.30;99.90
20315;DHT22;10315;50.958;13.080;2024-02-26T07:03:15;1.80;99.90
20315;DHT22;10315;50.958;13.080;2024-02-26T07:13:16;2.20;99.90
20315;DHT22;10315;50.958;13.080;2024-02-26T07:23:19;2.70;99.90
20315;DHT22;10315;50.958;13.080;2024-02-26T07:33:21;3.40;99.90
20315;DHT22;10315;50.958;13.080;2024-02-26T07:43:24;5.10;99.90
20315;DHT22;10315;50.958;13.080;2024-02-26T07:53:25;11.40;99.90
20315;DHT22;10315;50.958;13.080;2024-02-26T08:03:28;18.60;99.90
20315;DHT22;10315;50.958;13.080;2024-02-26T08:13:30;20.80;93.70
20315;DHT22;10315;50.958;13.080;2024-02-26T08:23:33;18.40;93.50
20315;DHT22;10315;50.958;13.080;2024-02-26T08:33:34;20.10;90.80
20315;DHT22;10315;50.958;13.080;2024-02-26T08:43:37;22.70;83.90
20315;DHT22;10315;50.958;13.080;2024-02-26T08:53:39;24.10;77.40
20315;DHT22;10315;50.958;13.080;2024-02-26T09:03:42;20.30;81.80
20315;DHT22;10315;50.958;13.080;2024-02-26T09:13:43;16.10;91.00
20315;DHT22;10315;50.958;13.080;2024-02-26T09:23:46;14.10;96.70
20315;DHT22;10315;50.958;13.080;2024-02-26T09:33:48;13.10;99.90
20315;DHT22;10315;50.958;13.080;2024-02-26T09:43:53;12.90;99.90
20315;DHT22;10315;50.958;13.080;2024-02-26T09:53:59;13.00;99.90
20315;DHT22;10315;50.958;13.080;2024-02-26T10:04:03;13.00;99.90
20315;DHT22;10315;50.958;13.080;2024-02-26T10:14:06;12.80;99.90
20315;DHT22;10315;50.958;13.080;2024-02-26T10:24:14;13.00;99.90
20315;DHT22;10315;50.958;13.080;2024-02-26T10:34:15;13.20;99.90
20315;DHT22;10315;50.958;13.080;2024-02-26T10:44:18;13.10;99.90
20315;DHT22;10315;50.958;13.080;2024-02-26T10:54:20;13.80;99.90
20315;DHT22;10315;50.958;13.080;2024-02-26T11:04:25;13.90;99.90
20315;DHT22;10315;50.958;13.080;2024-02-26T11:14:29;14.40;99.90
20315;DHT22;10315;50.958;13.080;2024-02-26T11:24:33;14.00;99.90
20315;DHT22;10315;50.958;13.080;2024-02-26T11:34:34;15.00;99.90
20315;DHT22;10315;50.958;13.080;2024-02-26T11:44:37;15.10;99.90
20315;DHT22;10315;50.958;13.080;2024-02-26T11:54:43;14.80;99.90
20315;DHT22;10315;50.958;13.080;2024-02-26T12:04:47;15.00;99.90
20315;DHT22;10315;50.958;13.080;2024-02-26T12:14:51;14.70;99.90
20315;DHT22;10315;50.958;13.080;2024-02-26T12:24:59;14.50;99.90
20315;DHT22;10315;50.958;13.080;2024-02-26T12:35:05;14.40;99.90
20315;DHT22;10315;50.958;13.080;2024-02-26T12:45:10;14.20;99.90
20315;DHT22;10315;50.958;13.080;2024-02-26T12:55:15;14.00;99.90
20315;DHT22;10315;50.958;13.080;2024-02-26T13:05:19;13.70;99.90
20315;DHT22;10315;50.958;13.080;2024-02-26T13:15:22;13.40;99.90
20315;DHT22;10315;50.958;13.080;2024-02-26T13:25:25;13.20;99.90
20315;DHT22;10315;50.958;13.080;2024-02-26T13:35:26;12.70;99.90
20315;DHT22;10315;50.958;13.080;2024-02-26T13:45:33;12.40;99.90
20315;DHT22;10315;50.958;13.080;2024-02-26T13:55:35;12.10;99.90
20315;DHT22;10315;50.958;13.080;2024-02-26T14:05:38;12.50;99.90
20315;DHT22;10315;50.958;13.080;2024-02-26T14:15:39;12.20;99.90
20315;DHT22;10315;50.958;13.080;2024-02-26T14:25:42;12.20;99.90
20315;DHT22;10315;50.958;13.080;2024-02-26T14:35:44;12.50;99.90
20315;DHT22;10315;50.958;13.080;2024-02-26T14:45:47;12.30;99.90
20315;DHT22;10315;50.958;13.080;2024-02-26T14:55:48;12.00;99.90
20315;DHT22;10315;50.958;13.080;2024-02-26T15:05:51;11.70;99.90
20315;DHT22;10315;50.958;13.080;2024-02-26T15:15:53;11.30;99.90
20315;DHT22;10315;50.958;13.080;2024-02-26T15:25:56;10.80;99.90
20315;DHT22;10315;50.958;13.080;2024-02-26T15:35:57;10.70;99.90
20315;DHT22;10315;50.958;13.080;2024-02-26T15:46:00;10.00;99.90
20315;DHT22;10315;50.958;13.080;2024-02-26T15:56:02;9.60;99.90
20315;DHT22;10315;50.958;13.080;2024-02-26T16:06:06;9.10;99.90
20315;DHT22;10315;50.958;13.080;2024-02-26T16:16:13;8.50;99.90
20315;DHT22;10315;50.958;13.080;2024-02-26T16:26:16;8.20;99.90
20315;DHT22;10315;50.958;13.080;2024-02-26T16:36:18;7.80;99.90
20315;DHT22;10315;50.958;13.080;2024-02-26T16:46:21;7.40;99.90
20315;DHT22;10315;50.958;13.080;2024-02-26T16:56:22;7.20;99.90
20315;DHT22;10315;50.958;13.080;2024-02-26T17:06:25;6.80;99.90
20315;DHT22;10315;50.958;13.080;2024-02-26T17:16:27;6.30;99.90
20315;DHT22;10315;50.958;13.080;2024-02-26T17:26:30;6.00;99.90
20315;DHT22;10315;50.958;13.080;2024-02-26T17:36:32;5.50;99.90
20315;DHT22;10315;50.958;13.080;2024-02-26T17:46:35;5.00;99.90
20315;DHT22;10315;50.958;13.080;2024-02-26T17:56:36;4.70;99.90
20315;DHT22;10315;50.958;13.080;2024-02-26T18:06:40;4.90;99.90
20315;DHT22;10315;50.958;13.080;2024-02-26T18:16:43;5.00;99.90
20315;DHT22;10315;50.958;13.080;2024-02-26T18:26:46;5.20;99.90
20315;DHT22;10315;50.958;13.080;2024-02-26T18:36:50;4.70;99.90
20315;DHT22;10315;50.958;13.080;2024-02-26T18:46:53;4.30;99.90
20315;DHT22;10315;50.958;13.080;2024-02-26T18:56:55;3.90;99.90
20315;DHT22;10315;50.958;13.080;2024-02-26T19:06:58;3.70;99.90
20315;DHT22;10315;50.958;13.080;2024-02-26T19:16:59;3.50;99.90
20315;DHT22;10315;50.958;13.080;2024-02-26T19:27:02;3.10;99.90
20315;DHT22;10315;50.958;13.080;2024-02-26T19:37:05;2.80;99.90
20315;DHT22;10315;50.958;13.080;2024-02-26T19:47:09;2.60;99.90
20315;DHT22;10315;50.958;13.080;2024-02-26T19:57:11;2.60;99.90
20315;DHT22;10315;50.958;13.080;2024-02-26T20:07:14;2.40;99.90
20315;DHT22;10315;50.958;13.080;2024-02-26T20:17:17;2.00;99.90
20315;DHT22;10315;50.958;13.080;2024-02-26T20:27:21;2.00;99.90
20315;DHT22;10315;50.958;13.080;2024-02-26T20:37:22;3.20;99.90
20315;DHT22;10315;50.958;13.080;2024-02-26T20:47:25;3.20;99.90
20315;DHT22;10315;50.958;13.080;2024-02-26T20:57:27;2.90;99.90
20315;DHT22;10315;50.958;13.080;2024-02-26T21:07:30;2.80;99.90
20315;DHT22;10315;50.958;13.080;2024-02-26T21:17:32;2.90;99.90
20315;DHT22;10315;50.958;13.080;2024-02-26T21:27:35;3.30;99.90
20315;DHT22;10315;50.958;13.080;2024-02-26T21:37:36;3.50;99.90
20315;DHT22;10315;50.958;13.080;2024-02-26T21:47:39;3.90;99.90
20315;DHT22;10315;50.958;13.080;2024-02-26T21:57:41;4.00;99.90
20315;DHT22;10315;50.958;13.080;2024-02-26T22:07:44;4.30;99.90
20315;DHT22;10315;50.958;13.080;2024-02-26T22:17:46;4.00;99.90
20315;DHT22;10315;50.958;13.080;2024-02-26T22:27:49;3.70;99.90
20315;DHT22;10315;50.958;13.080;2024-02-26T22:37:50;3.70;99.90
20315;DHT22;10315;50.958;13.080;2024-02-26T22:47:53;3.70;99.90
20315;DHT22;10315;50.958;13.080;2024-02-26T22:57:55;3.70;99.90
20315;DHT22;10315;50.958;13.080;2024-02-26T23:07:59;4.10;99.90
20315;DHT22;10315;50.958;13.080;2024-02-26T23:18:00;4.20;99.90
20315;DHT22;10315;50.958;13.080;2024-02-26T23:28:04;4.20;99.90
20315;DHT22;10315;50.958;13.080;2024-02-26T23:38:08;4.20;99.90
20315;DHT22;10315;50.958;13.080;2024-02-26T23:48:11;3.90;99.90
20315;DHT22;10315;50.958;13.080;2024-02-26T23:58:13;3.60;99.90
